Aldie, VA

8:20 PM EDT on October 01, 2014 (GMT -0400)
Kirkpatrick Farms | Change Station
CLOSE
Current Station
Personal Weather Station
Location: Aldie, VA
Elevation: 302 ft
Nearby Weather Stations

Elev 302 ft 38.91 °N, 77.56 °W | Updated 5 minutes ago

Mostly Cloudy
Mostly Cloudy
61.2 °F
Feels Like 61.2 °F
N
0.0
Wind Variable Wind from NW
Gusts 0.0 mph

Today
High -- | Low -- °F
--% Chance of Precip.
Yesterday
High -- | Low -- °F
Precip. -- in
7:06 AM 6:53 PM
First Quarter, 52% visible
Pressure 30.04 in
Visibility 10.0 miles
Clouds Few 3000 ft
Scattered Clouds 5500 ft
Mostly Cloudy 9000 ft
Dew Point 61 °F
Humidity 98%
Rainfall 0.07 in
Snow Depth Not available.
UV 0 out of 12
Pollen 3.20 out of 12
Ozone Good
PM2.5 Moderate
Flu Activity Not available.
METAR KIAD 012352Z 07003KT 10SM FEW030 SCT055 BKN090 17/15 A3004 RMK AO2 SLP171 T01670150 10222 20167 53008

More Conditions Fewer Conditions

Pressure 30.04 in
Visibility 10.0 miles
Clouds Few 3000 ft
Scattered Clouds 5500 ft
Mostly Cloudy 9000 ft
Dew Point 61 °F
Humidity 98%
Rainfall 0.07 in
Snow Depth Not available.
UV 0 out of 12
Pollen 3.20 out of 12
Ozone Good
PM2.5 Moderate
Flu Activity Not available.
METAR KIAD 012352Z 07003KT 10SM FEW030 SCT055 BKN090 17/15 A3004 RMK AO2 SLP171 T01670150 10222 20167 53008

More Conditions Fewer Conditions

10-Day Weather Forecast

Almanac

Astronomy

Oct. 01, 2014 Rise Set
Actual Time 7:06 AM EDT 6:53 PM EDT
Civil Twilight 6:39 AM EDT 7:19 PM EDT
Nautical Twilight 6:08 AM EDT 7:50 PM EDT
Astronomical Twilight 5:37 AM EDT 8:21 PM EDT
Moon 2:03 PM EDT (10/1) No Moon Set
Length of Visible Light 12h 39m
Length of Day
11h 46m
Tomorrow will be 2m 30s shorter.
First Quarter, 52% of the Moon is Illuminated
Today
First Quarter
Oct 8
Full
Oct 15
Last Quarter
Oct 23
New
Oct 30
First Quarter

Today's Extremes

State Highs State Lows

Community

WunderPhotos

Upload Photos

1,758,097 photos uploaded!

WunderBlogs® & News

Nearby

Air Quality

  Air Quality AQ Index Pollutant
Yesterday Good
PM10
Yesterday Good
OZONE
Current Moderate
PM2.5
Current Good
OZONE
Wednesday Moderate
PM2.5
Thursday Good
PM2.5
Friday Good
PM2.5
Saturday Good
PM2.5

Snow Depth

Station Depth Elevation
No new snow has been reported.

Earthquake Activity

City Distance Mag. Time & Date
No recent earthquake activity has been reported nearby.
Minimum magnitude displayed is 2.5.

Coastal Water Temperatures

Place Temperature
Washington, DC 71.1 °F
Lewisetta, VA 72.0 °F
Solomons Island, MD 73.0 °F

Nearby Weather Stations